Time;durP1;ratioP1;P1;durP2;ratioP2;P2;SDS_P1;SDS_P2;PMS_P1;PMS_P2;Temp;Humidity;BMP_temperature;BMP_pressure;BME280_temperature;BME280_humidity;BME280_pressure;Samples;Min_cycle;Max_cycle;Signal;HPM_P1;HPM_P2
2022/03/21 00:00:42;;;;;;;19.13;12.93;;;;;;;;;;5036130;28;20425;-64
2022/03/21 00:03:09;;;;;;;20.57;12.10;;;;;;;;;;5036095;28;20417;-64
2022/03/21 00:05:35;;;;;;;25.50;12.60;;;;;;;;;;5037799;28;20421;-64
2022/03/21 00:08:02;;;;;;;20.30;13.40;;;;;;;;;;5049278;28;20473;-64
2022/03/21 00:10:28;;;;;;;20.23;12.70;;;;;;;;;;5035914;28;20533;-64
2022/03/21 00:12:55;;;;;;;17.43;12.10;;;;;;;;;;5035815;28;20442;-64
2022/03/21 00:15:23;;;;;;;18.97;12.60;;;;;;;;;;5035892;28;20457;-64
2022/03/21 00:17:49;;;;;;;18.60;12.30;;;;;;;;;;5036826;28;20464;-64
2022/03/21 00:20:15;;;;;;;18.93;12.67;;;;;;;;;;5046623;28;20448;-64
2022/03/21 00:22:42;;;;;;;21.50;14.37;;;;;;;;;;5035590;28;20885;-64
2022/03/21 00:25:08;;;;;;;19.83;12.40;;;;;;;;;;5035709;28;20445;-63
2022/03/21 00:27:35;;;;;;;19.30;12.00;;;;;;;;;;5035423;28;21039;-63
2022/03/21 00:30:01;;;;;;;21.43;13.30;;;;;;;;;;5054974;28;20501;-64
2022/03/21 00:32:27;;;;;;;19.63;12.93;;;;;;;;;;5055544;28;20405;-64
2022/03/21 00:34:54;;;;;;;22.90;13.40;;;;;;;;;;5055370;28;20819;-64
2022/03/21 00:37:20;;;;;;;20.17;12.40;;;;;;;;;;5055232;28;20480;-63
2022/03/21 00:39:46;;;;;;;20.00;12.90;;;;;;;;;;5036708;28;20910;-63
2022/03/21 00:42:12;;;;;;;17.70;12.43;;;;;;;;;;5035367;28;20435;-63
2022/03/21 00:44:38;;;;;;;19.20;11.87;;;;;;;;;;5035367;28;20414;-63
2022/03/21 00:47:05;;;;;;;18.13;12.50;;;;;;;;;;5035282;28;20413;-63
2022/03/21 00:49:31;;;;;;;19.37;12.80;;;;;;;;;;5035972;28;20410;-63
2022/03/21 00:51:57;;;;;;;19.57;12.50;;;;;;;;;;5035311;28;20421;-64
2022/03/21 00:54:23;;;;;;;22.50;12.40;;;;;;;;;;5035015;28;20411;-64
2022/03/21 00:56:49;;;;;;;18.90;13.20;;;;;;;;;;5035015;28;20414;-64
2022/03/21 00:59:15;;;;;;;18.83;12.33;;;;;;;;;;5042748;28;20476;-63
2022/03/21 01:01:41;;;;;;;21.47;12.10;;;;;;;;;;5054830;28;20441;-63
2022/03/21 01:04:07;;;;;;;21.97;13.00;;;;;;;;;;5054994;28;20449;-63
2022/03/21 01:06:33;;;;;;;16.83;12.10;;;;;;;;;;5054656;28;20469;-64
2022/03/21 01:08:59;;;;;;;18.53;12.97;;;;;;;;;;5049711;28;20422;-63
2022/03/21 01:11:25;;;;;;;22.50;12.90;;;;;;;;;;5034711;28;20496;-63
2022/03/21 01:13:51;;;;;;;17.93;12.23;;;;;;;;;;5034623;28;20418;-64
2022/03/21 01:16:17;;;;;;;16.30;12.20;;;;;;;;;;5034705;28;20456;-63
2022/03/21 01:18:46;;;;;;;19.00;12.90;;;;;;;;;;5052249;28;20556;-63
2022/03/21 01:21:13;;;;;;;20.90;12.70;;;;;;;;;;5053464;28;20417;-63
2022/03/21 01:23:39;;;;;;;18.70;12.23;;;;;;;;;;5054657;28;20406;-63
2022/03/21 01:26:05;;;;;;;27.60;13.83;;;;;;;;;;5054464;28;20405;-63
2022/03/21 01:28:31;;;;;;;20.67;12.10;;;;;;;;;;5038243;28;20501;-64
2022/03/21 01:30:57;;;;;;;20.97;11.80;;;;;;;;;;5034397;28;20419;-63
2022/03/21 01:33:24;;;;;;;19.40;12.93;;;;;;;;;;5034489;28;20415;-63
2022/03/21 01:35:50;;;;;;;21.97;13.40;;;;;;;;;;5034258;28;20426;-64
2022/03/21 01:38:16;;;;;;;19.10;13.53;;;;;;;;;;5047411;28;20587;-64
2022/03/21 01:40:42;;;;;;;19.20;13.30;;;;;;;;;;5054094;28;20430;-64
2022/03/21 01:43:11;;;;;;;18.63;12.13;;;;;;;;;;5054048;28;20412;-63
2022/03/21 01:45:37;;;;;;;20.43;14.13;;;;;;;;;;5054041;28;20917;-64
2022/03/21 01:48:03;;;;;;;19.93;12.87;;;;;;;;;;5042056;28;20461;-64
2022/03/21 01:50:29;;;;;;;21.03;13.20;;;;;;;;;;5034133;28;20460;-64
2022/03/21 01:55:43;;;;;;;19.37;13.00;;;;;;;;;;5034159;28;20410;-63
2022/03/21 01:55:45;;;;;;;20.20;12.53;;;;;;;;;;5033818;28;20406;-63
2022/03/21 01:58:14;;;;;;;19.00;12.40;;;;;;;;;;5045958;28;21025;-64
2022/03/21 02:00:48;;;;;;;17.97;12.13;;;;;;;;;;5051811;28;20418;-64
2022/03/21 02:03:14;;;;;;;18.70;12.73;;;;;;;;;;5053845;28;20903;-64
2022/03/21 02:05:40;;;;;;;18.50;12.13;;;;;;;;;;5051725;28;20417;-63
2022/03/21 02:08:06;;;;;;;21.10;12.77;;;;;;;;;;5042313;28;20988;-64
2022/03/21 02:10:32;;;;;;;20.43;13.53;;;;;;;;;;5033527;28;20434;-64
2022/03/21 02:12:59;;;;;;;17.20;11.60;;;;;;;;;;5033697;28;20887;-63
2022/03/21 02:15:25;;;;;;;20.20;12.10;;;;;;;;;;5033552;28;20410;-63
2022/03/21 02:17:57;;;;;;;18.53;12.20;;;;;;;;;;5040481;28;20828;-63
2022/03/21 02:20:24;;;;;;;25.90;13.97;;;;;;;;;;5053191;28;20433;-64
2022/03/21 02:23:01;;;;;;;19.27;12.10;;;;;;;;;;5051540;28;20421;-64
2022/03/21 02:25:27;;;;;;;18.10;12.13;;;;;;;;;;5053571;28;20471;-63
2022/03/21 02:27:55;;;;;;;18.33;12.77;;;;;;;;;;5046048;28;20429;-64
2022/03/21 02:30:21;;;;;;;17.60;11.77;;;;;;;;;;5033374;28;20442;-63
2022/03/21 02:32:47;;;;;;;18.00;11.27;;;;;;;;;;5033362;28;20874;-64
2022/03/21 02:35:14;;;;;;;17.03;11.47;;;;;;;;;;5031980;28;20940;-63
2022/03/21 02:37:41;;;;;;;18.57;12.17;;;;;;;;;;5037761;28;20482;-63
2022/03/21 02:40:10;;;;;;;18.17;11.93;;;;;;;;;;5053044;28;20464;-64
2022/03/21 02:42:36;;;;;;;17.20;12.00;;;;;;;;;;5053238;28;20424;-64
2022/03/21 02:45:03;;;;;;;20.17;13.10;;;;;;;;;;5052033;28;20972;-64
2022/03/21 02:47:29;;;;;;;22.27;13.27;;;;;;;;;;5036458;28;20411;-63
2022/03/21 02:49:55;;;;;;;19.93;12.43;;;;;;;;;;5034429;28;20411;-64
2022/03/21 02:52:23;;;;;;;18.30;11.67;;;;;;;;;;5051818;28;20893;-63
2022/03/21 02:54:49;;;;;;;14.93;11.20;;;;;;;;;;5052363;28;20417;-63
2022/03/21 02:57:15;;;;;;;19.63;13.10;;;;;;;;;;5052687;28;20495;-64
2022/03/21 02:59:41;;;;;;;19.10;11.67;;;;;;;;;;5052380;28;20416;-64
2022/03/21 03:02:08;;;;;;;18.83;11.57;;;;;;;;;;5052797;28;20807;-64
2022/03/21 03:04:34;;;;;;;19.87;11.93;;;;;;;;;;5052950;28;20409;-64
2022/03/21 03:07:00;;;;;;;19.93;11.90;;;;;;;;;;5052612;28;20493;-64
2022/03/21 03:09:26;;;;;;;18.00;12.10;;;;;;;;;;5052796;28;20932;-64
2022/03/21 03:11:52;;;;;;;22.20;12.93;;;;;;;;;;5052656;28;20478;-64
2022/03/21 03:14:18;;;;;;;18.20;12.20;;;;;;;;;;5052858;28;20482;-64
2022/03/21 03:16:44;;;;;;;19.13;12.00;;;;;;;;;;5053812;28;20422;-64
2022/03/21 03:19:10;;;;;;;22.03;13.03;;;;;;;;;;5056768;28;20482;-65
2022/03/21 03:21:47;;;;;;;20.47;12.20;;;;;;;;;;5056766;28;20826;-65
2022/03/21 03:24:13;;;;;;;20.73;11.97;;;;;;;;;;5055474;28;20997;-64
2022/03/21 03:26:39;;;;;;;16.30;11.27;;;;;;;;;;5056590;28;20847;-64
2022/03/21 03:29:05;;;;;;;17.70;10.93;;;;;;;;;;5056553;28;20442;-64
2022/03/21 03:31:32;;;;;;;18.87;12.80;;;;;;;;;;5056580;28;20763;-63
2022/03/21 03:33:58;;;;;;;16.20;10.90;;;;;;;;;;5056457;28;20420;-64
2022/03/21 03:36:24;;;;;;;16.90;10.90;;;;;;;;;;5056356;28;20428;-63
2022/03/21 03:38:51;;;;;;;17.00;12.20;;;;;;;;;;5056361;28;20464;-63
2022/03/21 03:41:19;;;;;;;16.87;12.17;;;;;;;;;;5056323;28;20425;-64
2022/03/21 03:43:45;;;;;;;17.30;11.93;;;;;;;;;;5056315;28;20413;-64
2022/03/21 03:46:12;;;;;;;18.00;11.03;;;;;;;;;;5055125;28;20488;-64
2022/03/21 03:48:38;;;;;;;20.43;12.20;;;;;;;;;;5056244;28;20457;-64
2022/03/21 03:51:05;;;;;;;20.53;13.50;;;;;;;;;;5056304;28;20957;-63
2022/03/21 03:53:31;;;;;;;18.93;11.80;;;;;;;;;;5056164;28;20408;-64
2022/03/21 03:55:57;;;;;;;19.17;11.83;;;;;;;;;;5055997;28;20770;-64
2022/03/21 03:58:23;;;;;;;15.77;11.63;;;;;;;;;;5056035;28;20466;-65
2022/03/21 04:00:49;;;;;;;17.00;11.70;;;;;;;;;;5055981;28;20416;-63
2022/03/21 04:05:59;;;;;;;17.50;11.13;;;;;;;;;;5056035;28;20455;-65
2022/03/21 04:08:25;;;;;;;22.13;12.30;;;;;;;;;;5055663;28;20522;-66
2022/03/21 04:10:51;;;;;;;18.73;12.50;;;;;;;;;;5055849;28;20528;-64
2022/03/21 04:13:17;;;;;;;16.70;11.03;;;;;;;;;;5055889;28;20394;-64
2022/03/21 04:15:44;;;;;;;17.70;12.27;;;;;;;;;;5055586;28;20756;-64
2022/03/21 04:18:10;;;;;;;17.30;11.03;;;;;;;;;;5055590;28;20470;-64
2022/03/21 04:20:37;;;;;;;14.53;10.67;;;;;;;;;;5055737;28;20741;-65
2022/03/21 04:23:03;;;;;;;16.80;11.80;;;;;;;;;;5055661;28;20401;-63
2022/03/21 04:25:29;;;;;;;17.20;11.97;;;;;;;;;;5055704;28;20405;-64
2022/03/21 04:27:55;;;;;;;18.23;11.40;;;;;;;;;;5054955;28;20402;-63
2022/03/21 04:30:23;;;;;;;23.47;12.37;;;;;;;;;;5037774;28;20528;-64
2022/03/21 04:32:49;;;;;;;18.00;11.17;;;;;;;;;;5033513;28;20410;-64
2022/03/21 04:35:15;;;;;;;18.43;11.67;;;;;;;;;;5033199;28;20490;-63
2022/03/21 04:37:41;;;;;;;18.90;12.30;;;;;;;;;;5033481;28;20564;-63
2022/03/21 04:40:08;;;;;;;15.87;10.80;;;;;;;;;;5034204;28;20426;-63
2022/03/21 04:42:34;;;;;;;17.50;11.17;;;;;;;;;;5034644;28;20417;-63
2022/03/21 04:45:00;;;;;;;17.80;10.90;;;;;;;;;;5034561;28;20445;-64
2022/03/21 04:47:26;;;;;;;15.97;11.67;;;;;;;;;;5034487;28;20830;-64
2022/03/21 04:49:53;;;;;;;17.93;11.90;;;;;;;;;;5035318;28;20514;-64
2022/03/21 04:52:21;;;;;;;15.70;11.80;;;;;;;;;;5035201;28;20404;-65
2022/03/21 04:54:48;;;;;;;18.77;11.37;;;;;;;;;;5034730;28;20744;-65
2022/03/21 04:57:14;;;;;;;16.10;10.20;;;;;;;;;;5034940;28;20414;-63
2022/03/21 04:59:40;;;;;;;19.13;10.67;;;;;;;;;;5035097;28;20409;-63
2022/03/21 05:02:06;;;;;;;15.90;10.10;;;;;;;;;;5040737;28;20433;-63
2022/03/21 05:04:33;;;;;;;16.80;11.07;;;;;;;;;;5056192;28;20892;-64
2022/03/21 05:06:59;;;;;;;19.40;12.13;;;;;;;;;;5068421;28;20453;-63
2022/03/21 05:09:25;;;;;;;15.20;10.30;;;;;;;;;;5042174;28;20513;-65
2022/03/21 05:11:52;;;;;;;16.83;9.93;;;;;;;;;;5043873;28;20576;-64
2022/03/21 05:14:19;;;;;;;17.73;10.70;;;;;;;;;;5042711;28;20417;-65
2022/03/21 05:16:46;;;;;;;16.33;10.27;;;;;;;;;;5034573;28;20768;-64
2022/03/21 05:19:12;;;;;;;18.27;10.40;;;;;;;;;;5050355;28;20469;-65
2022/03/21 05:21:39;;;;;;;14.27;11.20;;;;;;;;;;5041704;28;20423;-65
2022/03/21 05:32:19;;;;;;;16.80;10.60;;;;;;;;;;5042881;28;20450;-63
2022/03/21 05:37:29;;;;;;;14.60;10.40;;;;;;;;;;5034657;28;20548;-66
2022/03/21 05:42:40;;;;;;;16.80;10.27;;;;;;;;;;5054648;28;20426;-66
2022/03/21 05:45:06;;;;;;;15.67;9.90;;;;;;;;;;5054202;28;20990;-65
2022/03/21 05:48:50;;;;;;;18.10;10.77;;;;;;;;;;5037396;28;20470;-66
2022/03/21 05:50:18;;;;;;;15.03;10.73;;;;;;;;;;5049322;28;20795;-65
2022/03/21 05:52:44;;;;;;;16.47;10.70;;;;;;;;;;5043478;28;20977;-67
2022/03/21 05:55:10;;;;;;;16.43;10.17;;;;;;;;;;5033143;28;20422;-66
2022/03/21 05:57:36;;;;;;;17.57;10.60;;;;;;;;;;5033523;28;20851;-65
2022/03/21 06:00:21;;;;;;;16.27;11.40;;;;;;;;;;5034096;28;20946;-66
2022/03/21 06:02:47;;;;;;;13.50;10.27;;;;;;;;;;5034716;28;20400;-64
2022/03/21 06:05:13;;;;;;;17.60;10.40;;;;;;;;;;5033283;28;20489;-65
2022/03/21 06:07:39;;;;;;;17.80;11.47;;;;;;;;;;5037823;28;20962;-65
2022/03/21 06:10:05;;;;;;;14.40;9.93;;;;;;;;;;5051587;28;20480;-66
2022/03/21 06:12:31;;;;;;;15.87;11.40;;;;;;;;;;5051495;28;20476;-65
2022/03/21 06:14:58;;;;;;;18.00;11.87;;;;;;;;;;5051335;28;20425;-65
2022/03/21 06:17:24;;;;;;;17.40;10.83;;;;;;;;;;5051630;28;20452;-65
2022/03/21 06:19:50;;;;;;;17.60;10.80;;;;;;;;;;5050073;28;20791;-66
2022/03/21 06:22:16;;;;;;;14.17;9.97;;;;;;;;;;5051066;28;20406;-67
2022/03/21 06:24:42;;;;;;;22.10;11.43;;;;;;;;;;5056495;28;20421;-65
2022/03/21 06:27:08;;;;;;;14.33;10.63;;;;;;;;;;5052600;28;20807;-66
2022/03/21 06:29:34;;;;;;;18.60;12.50;;;;;;;;;;5034545;28;20926;-65
2022/03/21 06:32:00;;;;;;;19.53;12.00;;;;;;;;;;5044571;28;20425;-65
2022/03/21 06:34:26;;;;;;;17.30;11.93;;;;;;;;;;5046485;28;20444;-67
2022/03/21 06:36:52;;;;;;;15.10;10.70;;;;;;;;;;5049998;28;20418;-66
2022/03/21 06:39:19;;;;;;;19.47;12.10;;;;;;;;;;5038982;28;20473;-67
2022/03/21 06:41:45;;;;;;;17.73;12.00;;;;;;;;;;5046570;28;20773;-67
2022/03/21 06:44:11;;;;;;;18.27;11.53;;;;;;;;;;5038596;28;20458;-67
2022/03/21 06:46:37;;;;;;;15.83;11.90;;;;;;;;;;5038339;28;20417;-63
2022/03/21 06:49:04;;;;;;;16.20;10.67;;;;;;;;;;5043088;28;20413;-65
2022/03/21 06:51:30;;;;;;;15.37;10.87;;;;;;;;;;5031712;28;20516;-67
2022/03/21 06:53:56;;;;;;;17.70;11.60;;;;;;;;;;5031982;28;20772;-67
2022/03/21 06:56:22;;;;;;;20.13;12.07;;;;;;;;;;5033084;28;20413;-67
2022/03/21 06:58:48;;;;;;;18.03;12.13;;;;;;;;;;5032985;28;20565;-67
2022/03/21 07:01:14;;;;;;;19.07;11.60;;;;;;;;;;5033097;28;20508;-64
2022/03/21 07:03:40;;;;;;;18.73;12.43;;;;;;;;;;5032933;28;20427;-63
2022/03/21 07:06:06;;;;;;;24.00;13.17;;;;;;;;;;5031823;28;20505;-66
2022/03/21 07:08:32;;;;;;;23.37;13.20;;;;;;;;;;5031495;28;20984;-65
2022/03/21 07:10:58;;;;;;;23.27;12.10;;;;;;;;;;5032926;28;20429;-64
2022/03/21 07:13:27;;;;;;;17.30;11.30;;;;;;;;;;5032764;28;20414;-64
2022/03/21 07:15:53;;;;;;;19.80;12.67;;;;;;;;;;5032921;28;20401;-65
2022/03/21 07:18:19;;;;;;;18.63;12.40;;;;;;;;;;5031484;28;20485;-65
2022/03/21 07:20:45;;;;;;;20.80;12.53;;;;;;;;;;5031559;28;20421;-65
2022/03/21 07:23:11;;;;;;;22.37;12.60;;;;;;;;;;5031515;28;20422;-64
2022/03/21 07:25:37;;;;;;;19.17;12.90;;;;;;;;;;5032873;28;20409;-65
2022/03/21 07:28:03;;;;;;;16.90;12.10;;;;;;;;;;5032769;28;20415;-65
2022/03/21 07:30:29;;;;;;;22.63;14.23;;;;;;;;;;5032824;28;20489;-65
2022/03/21 07:32:57;;;;;;;21.30;13.10;;;;;;;;;;5032528;28;20525;-65
2022/03/21 07:35:23;;;;;;;16.83;11.73;;;;;;;;;;5032816;28;20916;-65
2022/03/21 07:37:50;;;;;;;20.93;13.50;;;;;;;;;;5032580;28;20454;-66
2022/03/21 07:40:17;;;;;;;20.53;13.00;;;;;;;;;;5032711;28;20434;-64
2022/03/21 07:42:44;;;;;;;19.97;13.87;;;;;;;;;;5032843;28;20801;-65
2022/03/21 07:47:55;;;;;;;23.47;13.53;;;;;;;;;;5032917;28;20422;-67
2022/03/21 07:50:25;;;;;;;21.50;13.57;;;;;;;;;;5032630;28;20411;-65
2022/03/21 07:52:52;;;;;;;17.50;13.00;;;;;;;;;;5032356;28;20884;-64
2022/03/21 07:55:18;;;;;;;18.57;13.50;;;;;;;;;;5032600;28;20493;-64
2022/03/21 07:57:44;;;;;;;20.03;13.20;;;;;;;;;;5032463;28;20486;-64
2022/03/21 08:00:11;;;;;;;20.23;13.60;;;;;;;;;;5032498;28;20410;-68
2022/03/21 08:02:37;;;;;;;24.73;14.70;;;;;;;;;;5032583;28;20505;-64
2022/03/21 08:05:04;;;;;;;17.30;13.23;;;;;;;;;;5035663;28;20410;-64
2022/03/21 08:07:31;;;;;;;23.50;13.37;;;;;;;;;;5034647;28;20466;-65
2022/03/21 08:09:57;;;;;;;22.60;14.50;;;;;;;;;;5036016;28;20514;-64
2022/03/21 08:12:24;;;;;;;17.63;12.53;;;;;;;;;;5036124;28;20417;-65
2022/03/21 08:14:51;;;;;;;22.27;13.67;;;;;;;;;;5035759;28;20406;-65
2022/03/21 08:17:18;;;;;;;19.80;13.10;;;;;;;;;;5035950;28;20411;-64
2022/03/21 08:19:44;;;;;;;20.30;13.53;;;;;;;;;;5034647;28;20423;-66
2022/03/21 08:22:10;;;;;;;22.13;12.73;;;;;;;;;;5035892;28;20504;-65
2022/03/21 08:24:36;;;;;;;17.57;13.30;;;;;;;;;;5035869;28;20898;-66
2022/03/21 08:27:05;;;;;;;22.47;12.70;;;;;;;;;;5035849;28;20425;-63
2022/03/21 08:29:31;;;;;;;18.87;12.93;;;;;;;;;;5035766;28;20415;-66
2022/03/21 08:31:57;;;;;;;24.23;13.27;;;;;;;;;;5035693;28;20434;-66
2022/03/21 08:34:23;;;;;;;21.17;13.57;;;;;;;;;;5035557;28;20422;-67
2022/03/21 08:36:49;;;;;;;20.47;13.50;;;;;;;;;;5034472;28;20410;-64
2022/03/21 08:39:15;;;;;;;23.27;13.27;;;;;;;;;;5035476;28;20496;-66
2022/03/21 08:41:41;;;;;;;18.20;12.77;;;;;;;;;;5035515;28;20500;-66
2022/03/21 08:44:07;;;;;;;18.13;13.07;;;;;;;;;;5035601;28;20406;-65
2022/03/21 08:46:33;;;;;;;20.23;12.93;;;;;;;;;;5035333;28;20401;-65
2022/03/21 08:51:46;;;;;;;17.50;12.67;;;;;;;;;;5035451;28;20402;-65
2022/03/21 08:54:12;;;;;;;20.63;13.43;;;;;;;;;;5035235;28;20430;-65
2022/03/21 08:56:38;;;;;;;21.00;13.80;;;;;;;;;;5035139;28;20464;-65
2022/03/21 08:59:04;;;;;;;21.40;13.17;;;;;;;;;;5035126;28;20485;-66
2022/03/21 09:01:31;;;;;;;21.67;13.73;;;;;;;;;;5035062;28;20445;-64
2022/03/21 09:03:59;;;;;;;23.73;14.50;;;;;;;;;;5035057;28;20905;-64
2022/03/21 09:06:25;;;;;;;21.60;14.27;;;;;;;;;;5034760;28;20399;-64
2022/03/21 09:08:51;;;;;;;21.67;13.80;;;;;;;;;;5034979;28;20413;-65
2022/03/21 09:11:18;;;;;;;19.27;12.77;;;;;;;;;;5034712;28;20538;-66
2022/03/21 09:13:47;;;;;;;19.43;13.83;;;;;;;;;;5034592;28;20418;-63
2022/03/21 09:16:14;;;;;;;21.03;13.90;;;;;;;;;;5034712;28;20836;-65
2022/03/21 09:18:40;;;;;;;24.80;14.20;;;;;;;;;;5034668;28;20523;-64
2022/03/21 09:21:06;;;;;;;22.43;14.23;;;;;;;;;;5034833;28;20407;-64
2022/03/21 09:23:33;;;;;;;25.27;14.60;;;;;;;;;;5034769;28;20493;-64
2022/03/21 09:26:00;;;;;;;24.73;13.50;;;;;;;;;;5034872;28;20433;-65
2022/03/21 09:28:26;;;;;;;20.03;13.27;;;;;;;;;;5034727;28;20415;-64
2022/03/21 09:30:52;;;;;;;22.97;15.00;;;;;;;;;;5034580;28;20885;-65
2022/03/21 09:33:18;;;;;;;26.50;14.93;;;;;;;;;;5034531;28;20414;-65
2022/03/21 09:35:44;;;;;;;23.43;14.53;;;;;;;;;;5034568;28;20449;-65
2022/03/21 09:38:10;;;;;;;22.37;13.70;;;;;;;;;;5034393;28;21011;-65
2022/03/21 09:40:37;;;;;;;22.30;13.97;;;;;;;;;;5034502;28;20422;-66
2022/03/21 09:43:03;;;;;;;22.00;14.10;;;;;;;;;;5032948;28;20762;-65
2022/03/21 09:45:29;;;;;;;22.30;14.10;;;;;;;;;;5034367;28;20561;-65
2022/03/21 09:48:11;;;;;;;26.90;14.73;;;;;;;;;;5034191;28;20464;-65
2022/03/21 09:50:39;;;;;;;23.53;14.57;;;;;;;;;;5034433;28;20407;-67
2022/03/21 09:53:06;;;;;;;22.40;13.87;;;;;;;;;;5034090;28;20428;-65
2022/03/21 09:55:33;;;;;;;27.67;15.53;;;;;;;;;;5034107;28;20403;-67
2022/03/21 09:57:59;;;;;;;27.20;15.53;;;;;;;;;;5033954;28;20973;-65
2022/03/21 10:00:25;;;;;;;23.23;15.10;;;;;;;;;;5033966;28;20812;-65
2022/03/21 10:02:52;;;;;;;24.23;15.67;;;;;;;;;;5034112;28;20471;-68
2022/03/21 10:05:38;;;;;;;21.70;13.87;;;;;;;;;;5033960;28;20414;-65
2022/03/21 10:08:23;;;;;;;22.00;14.13;;;;;;;;;;5033670;28;20520;-65
2022/03/21 10:10:59;;;;;;;26.43;15.80;;;;;;;;;;5033846;28;21032;-66
2022/03/21 10:13:27;;;;;;;24.70;14.60;;;;;;;;;;5033640;28;20503;-65
2022/03/21 10:16:08;;;;;;;22.30;13.70;;;;;;;;;;5033839;28;20497;-67
2022/03/21 10:18:34;;;;;;;27.17;14.70;;;;;;;;;;5033619;28;20458;-65
2022/03/21 10:21:16;;;;;;;23.60;15.27;;;;;;;;;;5033839;28;20402;-67
2022/03/21 10:23:44;;;;;;;22.87;14.53;;;;;;;;;;5033562;28;20397;-64
2022/03/21 10:26:30;;;;;;;21.40;14.23;;;;;;;;;;5033077;28;20406;-64
2022/03/21 10:29:00;;;;;;;25.97;14.20;;;;;;;;;;5032372;28;20449;-67
2022/03/21 10:31:36;;;;;;;23.90;15.57;;;;;;;;;;5033550;28;20476;-66
2022/03/21 10:34:04;;;;;;;23.00;15.00;;;;;;;;;;5033368;28;20398;-65
2022/03/21 10:36:30;;;;;;;21.47;15.17;;;;;;;;;;5032518;28;20429;-65
2022/03/21 10:39:09;;;;;;;23.60;14.77;;;;;;;;;;5033335;28;20482;-69
2022/03/21 10:41:36;;;;;;;22.93;15.50;;;;;;;;;;5033350;28;20763;-64
2022/03/21 10:44:12;;;;;;;22.33;16.03;;;;;;;;;;5033256;28;20824;-66
2022/03/21 10:46:41;;;;;;;22.90;15.10;;;;;;;;;;5033307;28;20386;-65
2022/03/21 10:49:08;;;;;;;20.10;14.50;;;;;;;;;;5032045;28;20905;-64
2022/03/21 10:51:56;;;;;;;20.20;14.27;;;;;;;;;;5031934;28;20488;-65
2022/03/21 10:54:34;;;;;;;22.67;14.73;;;;;;;;;;5033117;28;20413;-66
2022/03/21 10:57:00;;;;;;;23.73;16.03;;;;;;;;;;5033006;28;20414;-66
2022/03/21 10:59:27;;;;;;;24.87;16.10;;;;;;;;;;5032894;28;21001;-65
2022/03/21 11:02:13;;;;;;;22.27;14.37;;;;;;;;;;5033174;28;20423;-64
2022/03/21 11:04:41;;;;;;;29.93;16.80;;;;;;;;;;5033103;28;20477;-64
2022/03/21 11:07:11;;;;;;;26.40;15.53;;;;;;;;;;5032819;28;20481;-66
2022/03/21 11:09:38;;;;;;;24.63;16.13;;;;;;;;;;5033055;28;20414;-67
2022/03/21 11:12:05;;;;;;;23.23;15.20;;;;;;;;;;5033014;28;20469;-66
2022/03/21 11:14:32;;;;;;;23.40;15.60;;;;;;;;;;5031470;28;20442;-66
2022/03/21 11:16:59;;;;;;;25.00;14.40;;;;;;;;;;5032913;28;20522;-68
2022/03/21 11:19:25;;;;;;;23.47;14.80;;;;;;;;;;5033044;28;21038;-68
2022/03/21 11:21:52;;;;;;;19.97;14.10;;;;;;;;;;5032994;28;20452;-68
2022/03/21 11:24:18;;;;;;;20.87;14.33;;;;;;;;;;5033061;28;20410;-66
2022/03/21 11:26:51;;;;;;;29.73;17.90;;;;;;;;;;5032890;28;20754;-66
2022/03/21 11:29:30;;;;;;;29.30;17.07;;;;;;;;;;5032879;28;20994;-68
2022/03/21 11:32:14;;;;;;;26.90;15.83;;;;;;;;;;5033033;28;20414;-66
2022/03/21 11:35:19;;;;;;;25.37;16.03;;;;;;;;;;5033268;28;20423;-66
2022/03/21 11:37:45;;;;;;;25.23;15.77;;;;;;;;;;5050588;28;20465;-67
2022/03/21 11:40:26;;;;;;;28.07;17.27;;;;;;;;;;5054231;28;20452;-69
2022/03/21 11:42:53;;;;;;;22.73;14.97;;;;;;;;;;5044199;28;20894;-68
2022/03/21 11:45:24;;;;;;;22.60;15.20;;;;;;;;;;5036766;28;20425;-69
2022/03/21 11:47:50;;;;;;;26.37;14.70;;;;;;;;;;5036600;28;20745;-72
2022/03/21 11:50:26;;;;;;;25.30;15.77;;;;;;;;;;5036731;28;20410;-68
2022/03/21 11:53:08;;;;;;;23.77;15.60;;;;;;;;;;5035262;28;20417;-70
2022/03/21 11:55:37;;;;;;;23.30;16.60;;;;;;;;;;5036564;28;20410;-70
2022/03/21 11:58:22;;;;;;;22.53;14.33;;;;;;;;;;5036399;28;20465;-69
2022/03/21 12:01:06;;;;;;;25.83;16.40;;;;;;;;;;5036402;28;20410;-70
2022/03/21 12:03:33;;;;;;;25.27;16.23;;;;;;;;;;5036202;28;20390;-68
2022/03/21 12:05:59;;;;;;;24.57;15.90;;;;;;;;;;5036205;28;21000;-69
2022/03/21 12:08:32;;;;;;;21.70;15.97;;;;;;;;;;5036048;28;20458;-66
2022/03/21 12:10:59;;;;;;;23.70;15.00;;;;;;;;;;5036262;28;20426;-67
2022/03/21 12:13:25;;;;;;;22.73;15.60;;;;;;;;;;5036125;28;20403;-66
2022/03/21 12:15:51;;;;;;;23.67;14.80;;;;;;;;;;5036022;28;20409;-66
2022/03/21 12:18:19;;;;;;;20.30;14.50;;;;;;;;;;5034639;28;20868;-65
2022/03/21 12:20:46;;;;;;;24.90;15.73;;;;;;;;;;5034721;28;20426;-65
2022/03/21 12:23:16;;;;;;;28.23;15.73;;;;;;;;;;5036002;28;20809;-70
2022/03/21 12:25:45;;;;;;;20.97;14.93;;;;;;;;;;5035953;28;20412;-66
2022/03/21 12:28:19;;;;;;;22.00;14.10;;;;;;;;;;5035738;28;20454;-67
2022/03/21 12:30:48;;;;;;;22.77;14.47;;;;;;;;;;5035640;28;20418;-66
2022/03/21 12:33:14;;;;;;;21.80;14.17;;;;;;;;;;5035638;28;20494;-65
2022/03/21 12:35:44;;;;;;;20.07;14.60;;;;;;;;;;5035630;28;20498;-65
2022/03/21 12:38:22;;;;;;;24.77;14.10;;;;;;;;;;5035424;28;20531;-68
2022/03/21 12:40:55;;;;;;;24.20;13.60;;;;;;;;;;5035372;28;20498;-65
2022/03/21 12:43:24;;;;;;;21.57;14.03;;;;;;;;;;5035726;28;20820;-65
2022/03/21 12:45:53;;;;;;;19.70;12.90;;;;;;;;;;5035588;28;20398;-66
2022/03/21 12:48:19;;;;;;;19.27;13.47;;;;;;;;;;5035471;28;20402;-66
2022/03/21 12:50:49;;;;;;;21.67;15.03;;;;;;;;;;5035044;28;20775;-67
2022/03/21 12:53:18;;;;;;;22.37;13.30;;;;;;;;;;5035338;28;20487;-65
2022/03/21 12:55:45;;;;;;;21.60;13.80;;;;;;;;;;5035426;28;20414;-66
2022/03/21 12:58:12;;;;;;;22.13;12.60;;;;;;;;;;5035035;28;20462;-66
2022/03/21 13:00:39;;;;;;;19.70;14.00;;;;;;;;;;5035232;28;20422;-66
2022/03/21 13:03:09;;;;;;;20.60;12.70;;;;;;;;;;5035189;28;20452;-67
2022/03/21 13:11:25;;;;;;;19.87;12.83;;;;;;;;;;5035270;28;20772;-68
2022/03/21 13:13:55;;;;;;;16.40;12.30;;;;;;;;;;5034959;28;20496;-66
2022/03/21 13:16:22;;;;;;;20.80;12.37;;;;;;;;;;5034902;28;21152;-69
2022/03/21 13:18:50;;;;;;;16.93;11.47;;;;;;;;;;5034744;28;20832;-69
2022/03/21 13:21:18;;;;;;;17.10;9.80;;;;;;;;;;5034986;28;20494;-68
2022/03/21 13:23:44;;;;;;;17.20;10.40;;;;;;;;;;5034881;28;20494;-66
2022/03/21 13:26:10;;;;;;;22.80;11.73;;;;;;;;;;5034831;28;20405;-67
2022/03/21 13:28:38;;;;;;;17.07;11.10;;;;;;;;;;5034744;28;20823;-65
2022/03/21 13:31:09;;;;;;;18.70;11.50;;;;;;;;;;5034694;28;20434;-65
2022/03/21 13:33:35;;;;;;;29.43;11.90;;;;;;;;;;5033241;28;20411;-65
2022/03/21 13:36:02;;;;;;;17.43;10.93;;;;;;;;;;5034629;28;20437;-67
2022/03/21 13:38:30;;;;;;;15.40;11.40;;;;;;;;;;5034367;28;20817;-65
2022/03/21 13:40:56;;;;;;;16.80;11.87;;;;;;;;;;5034212;28;20514;-68
2022/03/21 13:43:25;;;;;;;21.17;12.37;;;;;;;;;;5034300;28;20473;-67
2022/03/21 13:45:51;;;;;;;17.90;11.00;;;;;;;;;;5034324;28;20453;-66
2022/03/21 13:48:33;;;;;;;16.37;10.67;;;;;;;;;;5034246;28;20454;-66
2022/03/21 13:51:17;;;;;;;18.00;10.30;;;;;;;;;;5034205;28;20750;-69
2022/03/21 13:53:44;;;;;;;18.20;10.30;;;;;;;;;;5032932;28;20418;-67
2022/03/21 13:56:15;;;;;;;17.70;11.80;;;;;;;;;;5034044;28;20536;-66
2022/03/21 13:58:41;;;;;;;13.50;9.73;;;;;;;;;;5033949;28;20485;-65
2022/03/21 14:01:21;;;;;;;16.10;9.73;;;;;;;;;;5033209;28;20452;-65
2022/03/21 14:03:48;;;;;;;21.73;10.77;;;;;;;;;;5034037;28;20410;-66
2022/03/21 14:06:15;;;;;;;15.20;10.60;;;;;;;;;;5033754;28;20402;-65
2022/03/21 14:08:41;;;;;;;17.10;10.97;;;;;;;;;;5033824;28;20450;-66
2022/03/21 14:11:09;;;;;;;15.30;9.90;;;;;;;;;;5033804;28;20892;-65
2022/03/21 14:13:53;;;;;;;14.33;10.23;;;;;;;;;;5033697;28;20406;-67
2022/03/21 14:16:19;;;;;;;19.90;11.17;;;;;;;;;;5033730;28;20906;-65
2022/03/21 14:18:53;;;;;;;18.70;10.40;;;;;;;;;;5033735;28;20464;-66
2022/03/21 14:21:19;;;;;;;17.80;11.20;;;;;;;;;;5033756;28;20417;-68
2022/03/21 14:23:45;;;;;;;18.03;12.37;;;;;;;;;;5033698;28;20410;-65
2022/03/21 14:26:29;;;;;;;20.07;11.23;;;;;;;;;;5032394;28;20415;-66
2022/03/21 14:28:55;;;;;;;18.07;11.93;;;;;;;;;;5032645;28;20434;-66
2022/03/21 14:31:21;;;;;;;18.73;12.57;;;;;;;;;;5033720;28;20415;-67
2022/03/21 14:33:47;;;;;;;20.27;11.90;;;;;;;;;;5033424;28;20489;-65
2022/03/21 14:36:14;;;;;;;20.93;12.60;;;;;;;;;;5033353;28;20409;-65
2022/03/21 14:38:40;;;;;;;20.30;12.50;;;;;;;;;;5033369;28;20568;-64
2022/03/21 14:41:08;;;;;;;21.60;12.60;;;;;;;;;;5033250;28;20431;-66
2022/03/21 14:43:34;;;;;;;21.03;13.00;;;;;;;;;;5033554;28;20432;-65
2022/03/21 14:46:01;;;;;;;18.77;12.90;;;;;;;;;;5033408;28;20460;-65
2022/03/21 14:48:27;;;;;;;22.90;12.87;;;;;;;;;;5033289;28;20422;-65